Time,TemperatureF,DewpointF,PressureIn,WindDirection,WindDirectionDegrees,WindSpeedMPH,WindSpeedGustMPH,Humidity,HourlyPrecipIn,Conditions,Clouds,dailyrainin,SolarRadiationWatts/m^2,SoftwareType,DateUTC
2013-02-21 00:12:00,11.1,7.0,30.37,NNW,347,2.0,4.0,84,0.00,,,0.00,0,weatherlink.com 1.10,2013-02-21 06:12:00,
2013-02-21 00:27:00,10.9,7.0,30.38,NNW,347,2.0,3.0,85,0.00,,,0.00,0,weatherlink.com 1.10,2013-02-21 06:27:00,
2013-02-21 00:42:00,10.3,6.0,30.38,NNW,347,2.0,3.0,84,0.00,,,0.00,0,weatherlink.com 1.10,2013-02-21 06:42:00,
2013-02-21 00:57:00,9.4,6.0,30.37,NNW,347,0.0,1.0,86,0.00,,,0.00,0,weatherlink.com 1.10,2013-02-21 06:57:00,
2013-02-21 01:12:00,8.8,6.0,30.37,NNW,347,0.0,1.0,86,0.00,,,0.00,0,weatherlink.com 1.10,2013-02-21 07:12:00,
2013-02-21 01:27:00,8.6,6.0,30.36,NNW,347,0.0,0.0,87,0.00,,,0.00,0,weatherlink.com 1.10,2013-02-21 07:27:00,
2013-02-21 01:42:00,8.5,5.0,30.36,NNW,347,1.0,2.0,87,0.00,,,0.00,0,weatherlink.com 1.10,2013-02-21 07:42:00,
2013-02-21 01:57:00,8.4,6.0,30.37,NNW,347,1.0,4.0,88,0.00,,,0.00,0,weatherlink.com 1.10,2013-02-21 07:57:00,
2013-02-21 02:12:00,9.6,7.0,30.37,NNW,347,2.0,3.0,88,0.00,,,0.00,0,weatherlink.com 1.10,2013-02-21 08:12:00,
2013-02-21 02:27:00,10.3,7.0,30.36,NNW,347,2.0,3.0,86,0.00,,,0.00,0,weatherlink.com 1.10,2013-02-21 08:27:00,
2013-02-21 02:42:00,9.3,6.0,30.36,NNW,347,2.0,4.0,86,0.00,,,0.00,0,weatherlink.com 1.10,2013-02-21 08:42:00,
2013-02-21 02:57:00,9.6,6.0,30.36,NNW,347,3.0,4.0,86,0.00,,,0.00,0,weatherlink.com 1.10,2013-02-21 08:57:00,
2013-02-21 03:12:00,9.0,6.0,30.37,NNW,347,2.0,4.0,86,0.00,,,0.00,0,weatherlink.com 1.10,2013-02-21 09:12:00,
2013-02-21 03:27:00,9.6,6.0,30.38,NNW,347,3.0,4.0,86,0.00,,,0.00,0,weatherlink.com 1.10,2013-02-21 09:27:00,
2013-02-21 03:42:00,10.7,7.0,30.39,NNW,348,2.0,4.0,85,0.00,,,0.00,0,weatherlink.com 1.10,2013-02-21 09:42:00,
2013-02-21 03:57:00,11.3,7.0,30.38,NNW,348,3.0,4.0,84,0.00,,,0.00,0,weatherlink.com 1.10,2013-02-21 09:57:00,
2013-02-21 04:12:00,10.9,7.0,30.38,NNW,348,3.0,4.0,83,0.00,,,0.00,0,weatherlink.com 1.10,2013-02-21 10:12:00,
2013-02-21 04:27:00,9.9,6.0,30.38,NNW,348,4.0,5.0,84,0.00,,,0.00,0,weatherlink.com 1.10,2013-02-21 10:27:00,
2013-02-21 04:42:00,10.2,6.0,30.36,NNE,31,4.0,5.0,84,0.00,,,0.00,0,weatherlink.com 1.10,2013-02-21 10:42:00,
2013-02-21 04:57:00,11.8,8.0,30.34,NE,47,8.0,11.0,83,0.00,,,0.00,0,weatherlink.com 1.10,2013-02-21 10:57:00,
2013-02-21 05:12:00,12.3,8.0,30.31,NE,46,13.0,14.0,81,0.00,,,0.00,0,weatherlink.com 1.10,2013-02-21 11:12:00,
2013-02-21 05:27:00,12.2,8.0,30.32,ENE,65,10.0,12.0,82,0.00,,,0.00,0,weatherlink.com 1.10,2013-02-21 11:27:00,
2013-02-21 05:42:00,12.5,8.0,30.37,ENE,78,8.0,12.0,81,0.00,,,0.00,0,weatherlink.com 1.10,2013-02-21 11:42:00,
2013-02-21 05:57:00,12.4,8.0,30.35,ENE,67,8.0,13.0,81,0.00,,,0.00,0,weatherlink.com 1.10,2013-02-21 11:57:00,
2013-02-21 06:12:00,12.3,8.0,30.36,ENE,59,8.0,11.0,81,0.00,,,0.00,0,weatherlink.com 1.10,2013-02-21 12:12:00,
2013-02-21 06:27:00,12.0,7.0,30.38,ENE,73,3.0,8.0,81,0.00,,,0.00,0,weatherlink.com 1.10,2013-02-21 12:27:00,
2013-02-21 06:43:00,11.6,7.0,30.36,ENE,71,4.0,5.0,81,0.00,,,0.00,5,weatherlink.com 1.10,2013-02-21 12:43:00,
2013-02-21 06:58:00,11.7,7.0,30.36,ENE,63,3.0,9.0,82,0.00,,,0.00,23,weatherlink.com 1.10,2013-02-21 12:58:00,
2013-02-21 07:13:00,12.5,8.0,30.37,NE,51,3.0,10.0,81,0.00,,,0.00,51,weatherlink.com 1.10,2013-02-21 13:13:00,
2013-02-21 07:28:00,12.7,8.0,30.40,ENE,74,2.0,4.0,81,0.00,,,0.00,74,weatherlink.com 1.10,2013-02-21 13:28:00,
2013-02-21 07:43:00,12.9,8.0,30.37,NE,44,6.0,9.0,81,0.00,,,0.00,114,weatherlink.com 1.10,2013-02-21 13:43:00,
2013-02-21 07:58:00,13.0,9.0,30.35,NE,54,9.0,13.0,82,0.00,,,0.00,125,weatherlink.com 1.10,2013-02-21 13:58:00,
2013-02-21 08:13:00,13.3,9.0,30.35,NE,53,9.0,15.0,83,0.00,,,0.00,142,weatherlink.com 1.10,2013-02-21 14:13:00,
2013-02-21 08:28:00,13.9,10.0,30.36,NE,53,10.0,14.0,84,0.00,,,0.00,207,weatherlink.com 1.10,2013-02-21 14:28:00,
2013-02-21 08:43:00,14.4,10.0,30.35,NE,43,8.0,13.0,84,0.00,,,0.00,241,weatherlink.com 1.10,2013-02-21 14:43:00,
2013-02-21 08:58:00,15.0,11.0,30.35,NE,55,7.0,12.0,84,0.00,,,0.00,287,weatherlink.com 1.10,2013-02-21 14:58:00,
2013-02-21 09:13:00,15.5,12.0,30.35,ENE,59,11.0,15.0,85,0.00,,,0.00,258,weatherlink.com 1.10,2013-02-21 15:13:00,
2013-02-21 09:28:00,15.9,12.0,30.37,NE,44,9.0,14.0,84,0.00,,,0.00,246,weatherlink.com 1.10,2013-02-21 15:28:00,
2013-02-21 09:43:00,16.5,13.0,30.36,ENE,69,10.0,15.0,85,0.00,,,0.00,239,weatherlink.com 1.10,2013-02-21 15:43:00,
2013-02-21 09:59:00,17.3,14.0,30.35,ENE,57,8.0,14.0,85,0.00,,,0.00,253,weatherlink.com 1.10,2013-02-21 15:59:00,
2013-02-21 10:14:00,18.0,14.0,30.36,ENE,72,10.0,14.0,85,0.00,,,0.00,278,weatherlink.com 1.10,2013-02-21 16:14:00,
2013-02-21 10:29:00,18.2,14.0,30.36,East,79,9.0,14.0,84,0.00,,,0.00,255,weatherlink.com 1.10,2013-02-21 16:29:00,
2013-02-21 10:44:00,18.3,15.0,30.34,ENE,67,10.0,12.0,85,0.00,,,0.00,294,weatherlink.com 1.10,2013-02-21 16:44:00,
2013-02-21 10:59:00,18.5,15.0,30.33,ENE,65,8.0,13.0,84,0.00,,,0.00,302,weatherlink.com 1.10,2013-02-21 16:59:00,
2013-02-21 11:14:00,18.7,15.0,30.34,ENE,62,7.0,13.0,85,0.00,,,0.00,299,weatherlink.com 1.10,2013-02-21 17:14:00,
2013-02-21 11:29:00,19.1,15.0,30.34,ENE,63,9.0,14.0,85,0.00,,,0.00,279,weatherlink.com 1.10,2013-02-21 17:29:00,
2013-02-21 11:44:00,19.0,15.0,30.32,ENE,63,14.0,16.0,85,0.00,,,0.00,281,weatherlink.com 1.10,2013-02-21 17:44:00,
2013-02-21 11:59:00,19.1,15.0,30.31,ENE,66,15.0,18.0,85,0.00,,,0.00,260,weatherlink.com 1.10,2013-02-21 17:59:00,
2013-02-21 12:14:00,19.2,16.0,30.30,ENE,69,12.0,17.0,86,0.00,,,0.00,241,weatherlink.com 1.10,2013-02-21 18:14:00,
2013-02-21 12:29:00,19.3,16.0,30.28,NE,41,15.0,18.0,87,0.00,,,0.00,272,weatherlink.com 1.10,2013-02-21 18:29:00,
2013-02-21 12:44:00,19.3,16.0,30.27,ENE,63,13.0,18.0,87,0.00,,,0.00,283,weatherlink.com 1.10,2013-02-21 18:44:00,
2013-02-21 12:59:00,19.7,17.0,30.26,ENE,63,12.0,17.0,87,0.00,,,0.00,306,weatherlink.com 1.10,2013-02-21 18:59:00,
2013-02-21 13:14:00,20.6,17.0,30.24,NE,55,10.0,18.0,86,0.00,,,0.00,345,weatherlink.com 1.10,2013-02-21 19:14:00,
2013-02-21 13:30:00,20.7,17.0,30.23,NE,44,11.0,16.0,85,0.00,,,0.00,281,weatherlink.com 1.10,2013-02-21 19:30:00,
2013-02-21 13:45:00,20.9,17.0,30.22,ENE,61,11.0,16.0,85,0.00,,,0.00,246,weatherlink.com 1.10,2013-02-21 19:45:00,
2013-02-21 14:00:00,21.4,18.0,30.22,NE,55,9.0,17.0,86,0.00,,,0.00,220,weatherlink.com 1.10,2013-02-21 20:00:00,
2013-02-21 14:15:00,21.7,18.0,30.22,NE,40,12.0,16.0,86,0.00,,,0.00,186,weatherlink.com 1.10,2013-02-21 20:15:00,
2013-02-21 14:30:00,21.7,18.0,30.23,NE,53,12.0,14.0,87,0.00,,,0.00,186,weatherlink.com 1.10,2013-02-21 20:30:00,
2013-02-21 15:00:00,21.9,19.0,30.22,ENE,63,12.0,16.0,88,0.00,,,0.00,137,weatherlink.com 1.10,2013-02-21 21:00:00,
2013-02-21 15:15:00,22.2,19.0,30.21,NE,54,8.0,14.0,88,0.00,,,0.00,130,weatherlink.com 1.10,2013-02-21 21:15:00,
2013-02-21 15:30:00,22.2,20.0,30.19,NE,49,11.0,16.0,89,0.00,,,0.00,105,weatherlink.com 1.10,2013-02-21 21:30:00,
2013-02-21 15:45:00,22.8,20.0,30.20,ENE,60,13.0,15.0,89,0.00,,,0.00,77,weatherlink.com 1.10,2013-02-21 21:45:00,
2013-02-21 16:00:00,22.8,20.0,30.19,East,83,10.0,21.0,89,0.00,,,0.00,54,weatherlink.com 1.10,2013-02-21 22:00:00,
2013-02-21 16:15:00,22.6,20.0,30.19,ENE,63,11.0,18.0,90,0.00,,,0.00,44,weatherlink.com 1.10,2013-02-21 22:15:00,
2013-02-21 16:30:00,22.5,20.0,30.16,ENE,63,15.0,21.0,90,0.00,,,0.00,37,weatherlink.com 1.10,2013-02-21 22:30:00,
2013-02-21 16:46:00,22.3,20.0,30.14,ENE,66,15.0,25.0,91,0.00,,,0.00,25,weatherlink.com 1.10,2013-02-21 22:46:00,
2013-02-21 17:16:00,22.0,20.0,30.13,ENE,69,16.0,22.0,92,0.00,,,0.00,7,weatherlink.com 1.10,2013-02-21 23:16:00,
2013-02-21 17:31:00,22.2,21.0,30.12,ENE,65,15.0,22.0,93,0.00,,,0.00,0,weatherlink.com 1.10,2013-02-21 23:31:00,
2013-02-21 17:46:00,22.2,21.0,30.11,ENE,59,16.0,23.0,93,0.00,,,0.00,0,weatherlink.com 1.10,2013-02-21 23:46:00,
2013-02-21 18:01:00,22.2,21.0,30.10,ENE,67,18.0,24.0,93,0.00,,,0.00,0,weatherlink.com 1.10,2013-02-22 00:01:00,
2013-02-21 18:16:00,22.4,21.0,30.09,NE,56,20.0,26.0,93,0.00,,,0.00,0,weatherlink.com 1.10,2013-02-22 00:16:00,
2013-02-21 18:31:00,22.6,21.0,30.09,ENE,69,18.0,26.0,93,0.00,,,0.00,0,weatherlink.com 1.10,2013-02-22 00:31:00,
2013-02-21 18:46:00,22.8,21.0,30.07,ENE,78,17.0,28.0,93,0.00,,,0.00,0,weatherlink.com 1.10,2013-02-22 00:46:00,
2013-02-21 19:01:00,23.2,22.0,30.07,ENE,69,13.0,23.0,93,0.00,,,0.00,0,weatherlink.com 1.10,2013-02-22 01:01:00,
2013-02-21 19:16:00,24.1,22.0,30.05,East,96,24.0,26.0,93,0.00,,,0.00,0,weatherlink.com 1.10,2013-02-22 01:16:00,
2013-02-21 19:31:00,24.7,23.0,30.07,East,81,19.0,27.0,91,0.00,,,0.00,0,weatherlink.com 1.10,2013-02-22 01:31:00,
2013-02-21 19:46:00,24.8,22.0,30.07,East,80,28.0,31.0,90,0.00,,,0.00,0,weatherlink.com 1.10,2013-02-22 01:46:00,
2013-02-21 20:01:00,24.9,22.0,30.04,East,85,19.0,27.0,90,0.00,,,0.00,0,weatherlink.com 1.10,2013-02-22 02:01:00,
2013-02-21 20:17:00,25.0,23.0,30.03,East,86,21.0,33.0,90,0.00,,,0.00,0,weatherlink.com 1.10,2013-02-22 02:17:00,
2013-02-21 20:32:00,25.1,22.0,30.01,East,86,25.0,34.0,89,0.00,,,0.00,0,weatherlink.com 1.10,2013-02-22 02:32:00,
2013-02-21 20:47:00,25.2,22.0,30.02,East,84,20.0,32.0,89,0.00,,,0.00,0,weatherlink.com 1.10,2013-02-22 02:47:00,
2013-02-21 21:02:00,25.4,23.0,30.02,East,94,22.0,28.0,89,0.00,,,0.00,0,weatherlink.com 1.10,2013-02-22 03:02:00,
2013-02-21 21:17:00,25.5,23.0,30.02,East,96,24.0,26.0,89,0.00,,,0.00,0,weatherlink.com 1.10,2013-02-22 03:17:00,
2013-02-21 21:32:00,25.7,23.0,30.02,East,99,20.0,26.0,89,0.00,,,0.00,0,weatherlink.com 1.10,2013-02-22 03:32:00,
2013-02-21 21:47:00,25.8,23.0,30.02,East,100,20.0,23.0,89,0.00,,,0.00,0,weatherlink.com 1.10,2013-02-22 03:47:00,
2013-02-21 22:02:00,25.9,23.0,30.00,East,92,15.0,24.0,88,0.00,,,0.00,0,weatherlink.com 1.10,2013-02-22 04:02:00,
2013-02-21 22:17:00,25.6,23.0,29.99,ENE,78,20.0,25.0,90,0.00,,,0.00,0,weatherlink.com 1.10,2013-02-22 04:17:00,
2013-02-21 22:32:00,25.0,23.0,29.97,ENE,71,17.0,23.0,93,0.00,,,0.00,0,weatherlink.com 1.10,2013-02-22 04:32:00,
2013-02-21 22:47:00,25.0,23.0,29.95,East,80,20.0,27.0,93,0.00,,,0.00,0,weatherlink.com 1.10,2013-02-22 04:47:00,
2013-02-21 23:02:00,24.9,23.0,29.95,East,88,21.0,26.0,93,0.00,,,0.00,0,weatherlink.com 1.10,2013-02-22 05:02:00,
2013-02-21 23:17:00,25.0,23.0,29.94,East,81,25.0,27.0,93,0.00,,,0.00,0,weatherlink.com 1.10,2013-02-22 05:17:00,
2013-02-21 23:33:00,25.0,24.0,29.93,East,90,17.0,30.0,94,0.00,,,0.00,0,weatherlink.com 1.10,2013-02-22 05:33:00,
2013-02-21 23:48:00,25.0,24.0,29.93,East,86,19.0,25.0,94,0.00,,,0.00,0,weatherlink.com 1.10,2013-02-22 05:48:00,